Time;durP1;ratioP1;P1;durP2;ratioP2;P2;SDS_P1;SDS_P2;PMS_P1;PMS_P2;Temp;Humidity;BMP_temperature;BMP_pressure;BME280_temperature;BME280_humidity;BME280_pressure;Samples;Min_cycle;Max_cycle;Signal;HPM_P1;HPM_P2
2023/03/13 00:00:52;;;;;;;3.05;1.00;;;9.70;77.70;;;;;;4982019;28;20104;-59
2023/03/13 00:03:18;;;;;;;2.90;0.90;;;9.70;77.70;;;;;;4984270;28;20573;-58
2023/03/13 00:05:44;;;;;;;2.30;0.93;;;9.70;77.70;;;;;;4978936;28;20121;-60
2023/03/13 00:08:09;;;;;;;4.80;1.15;;;9.70;77.70;;;;;;4981438;28;20512;-60
2023/03/13 00:10:39;;;;;;;4.05;1.10;;;9.60;77.70;;;;;;4979985;28;20033;-59
2023/03/13 00:13:06;;;;;;;2.42;0.88;;;9.70;77.70;;;;;;4978183;28;20462;-61
2023/03/13 00:15:32;;;;;;;2.95;0.85;;;9.70;77.70;;;;;;4978652;28;20116;-59
2023/03/13 00:17:58;;;;;;;2.80;0.90;;;9.70;77.70;;;;;;4984166;28;20563;-60
2023/03/13 00:20:24;;;;;;;3.67;0.88;;;9.70;77.70;;;;;;4979282;28;20038;-60
2023/03/13 00:22:49;;;;;;;2.72;0.93;;;9.70;77.50;;;;;;4983819;28;21810;-58
2023/03/13 00:25:15;;;;;;;5.93;0.80;;;9.70;77.50;;;;;;4976481;28;20035;-61
2023/03/13 00:27:41;;;;;;;2.42;1.13;;;9.70;77.40;;;;;;4983741;28;20054;-60
2023/03/13 00:30:07;;;;;;;2.17;0.60;;;9.70;77.30;;;;;;4977345;28;20134;-61
2023/03/13 00:32:32;;;;;;;2.35;0.77;;;9.70;77.30;;;;;;4985971;28;20101;-61
2023/03/13 00:34:58;;;;;;;2.88;0.85;;;9.70;77.20;;;;;;4982863;28;20330;-61
2023/03/13 00:37:24;;;;;;;3.75;0.90;;;9.70;77.10;;;;;;4980548;28;20039;-60
2023/03/13 00:39:49;;;;;;;2.58;0.80;;;9.80;77.20;;;;;;4981583;28;20133;-61
2023/03/13 00:42:15;;;;;;;4.65;0.70;;;9.80;77.10;;;;;;4982261;28;20116;-59
2023/03/13 00:44:40;;;;;;;2.63;0.85;;;9.80;77.00;;;;;;4979066;28;20065;-59
2023/03/13 00:47:06;;;;;;;2.95;0.70;;;9.80;77.00;;;;;;4983989;28;20052;-58
2023/03/13 00:49:32;;;;;;;3.20;0.90;;;9.80;77.00;;;;;;4980857;28;20038;-60
2023/03/13 00:51:57;;;;;;;4.65;1.08;;;9.80;77.10;;;;;;4983132;28;20030;-61
2023/03/13 00:54:23;;;;;;;3.08;0.95;;;9.80;77.00;;;;;;4985789;28;20042;-60
2023/03/13 00:56:49;;;;;;;4.40;0.93;;;9.80;77.00;;;;;;4988040;28;20041;-60
2023/03/13 00:59:14;;;;;;;4.63;0.80;;;9.80;77.00;;;;;;4985967;28;20152;-57
2023/03/13 01:01:40;;;;;;;4.07;0.88;;;9.80;77.00;;;;;;4987147;28;20041;-60
2023/03/13 01:04:09;;;;;;;2.80;0.77;;;9.90;77.00;;;;;;4980301;28;20042;-62
2023/03/13 01:06:37;;;;;;;3.40;0.98;;;9.80;76.80;;;;;;4982540;28;20062;-60
2023/03/13 01:09:05;;;;;;;3.92;0.82;;;9.90;77.70;;;;;;4981578;28;20065;-62
2023/03/13 01:11:33;;;;;;;4.43;0.90;;;9.90;76.80;;;;;;4976033;28;20636;-61
2023/03/13 01:14:02;;;;;;;2.00;1.00;;;9.90;76.80;;;;;;4976944;28;20127;-61
2023/03/13 01:16:30;;;;;;;2.08;0.82;;;9.90;76.60;;;;;;4984126;28;20042;-61
2023/03/13 01:19:00;;;;;;;3.70;0.82;;;9.90;76.60;;;;;;4981695;28;20042;-60
2023/03/13 01:21:27;;;;;;;2.65;1.10;;;9.90;76.50;;;;;;4980904;28;20046;-60
2023/03/13 01:23:53;;;;;;;1.98;0.77;;;9.90;76.60;;;;;;4985042;28;20125;-62
2023/03/13 01:26:20;;;;;;;2.45;0.75;;;9.90;76.50;;;;;;4980878;28;20045;-60
2023/03/13 01:28:46;;;;;;;1.90;0.80;;;9.80;76.50;;;;;;4980427;28;20136;-61
2023/03/13 01:31:20;;;;;;;2.17;1.00;;;9.80;76.50;;;;;;4980124;28;20031;-62
2023/03/13 01:33:47;;;;;;;2.05;0.70;;;9.80;76.50;;;;;;4981096;28;20429;-61
2023/03/13 01:36:13;;;;;;;2.90;0.80;;;9.80;76.50;;;;;;4979387;28;20030;-60
2023/03/13 01:38:40;;;;;;;1.65;0.80;;;9.90;76.50;;;;;;4978318;28;20042;-60
2023/03/13 01:41:07;;;;;;;2.75;0.80;;;9.90;76.50;;;;;;4977550;28;20042;-60
2023/03/13 01:43:35;;;;;;;2.63;0.70;;;9.90;76.50;;;;;;4979967;28;20041;-60
2023/03/13 01:46:08;;;;;;;2.28;0.90;;;9.90;76.50;;;;;;4980187;28;20093;-61
2023/03/13 01:48:41;;;;;;;2.50;0.80;;;9.90;76.50;;;;;;4977973;28;20045;-61
2023/03/13 01:51:15;;;;;;;2.60;0.70;;;9.90;76.40;;;;;;4981775;28;20460;-59
2023/03/13 01:53:44;;;;;;;3.35;0.98;;;9.90;76.50;;;;;;4979638;28;20137;-60
2023/03/13 01:56:16;;;;;;;4.40;0.95;;;9.90;76.80;;;;;;4979026;28;20643;-59
2023/03/13 01:58:41;;;;;;;1.98;0.60;;;9.90;77.30;;;;;;4977569;28;20391;-59
2023/03/13 02:01:08;;;;;;;1.85;0.63;;;9.90;76.50;;;;;;4979505;28;20037;-60
2023/03/13 02:03:35;;;;;;;2.65;1.00;;;10.00;76.50;;;;;;4981485;28;20056;-61
2023/03/13 02:06:03;;;;;;;2.83;0.80;;;9.90;76.40;;;;;;4978949;28;20088;-61
2023/03/13 02:08:39;;;;;;;1.95;0.75;;;9.90;76.40;;;;;;4980783;28;20025;-61
2023/03/13 02:11:16;;;;;;;1.65;0.70;;;9.90;76.40;;;;;;4976955;28;20129;-61
2023/03/13 02:13:42;;;;;;;2.00;0.80;;;9.90;76.40;;;;;;4979876;28;20121;-61
2023/03/13 02:16:09;;;;;;;3.35;0.70;;;9.90;76.30;;;;;;4977371;28;20529;-61
2023/03/13 02:18:37;;;;;;;1.85;0.75;;;10.00;76.30;;;;;;4980909;28;20030;-61
2023/03/13 02:21:37;;;;;;;2.75;0.55;;;9.90;76.30;;;;;;4979485;28;20039;-61
2023/03/13 02:24:20;;;;;;;1.75;0.80;;;10.00;76.60;;;;;;4984192;28;20027;-61
2023/03/13 02:26:46;;;;;;;1.77;0.65;;;10.00;76.40;;;;;;4980814;28;20482;-60
2023/03/13 02:29:17;;;;;;;2.30;0.60;;;10.00;76.30;;;;;;4982972;28;20142;-61
2023/03/13 02:31:44;;;;;;;3.17;0.82;;;10.00;76.30;;;;;;4977279;28;20045;-59
2023/03/13 02:34:13;;;;;;;1.95;0.70;;;10.00;76.30;;;;;;4980503;28;20550;-60
2023/03/13 02:36:40;;;;;;;2.13;0.60;;;9.90;76.30;;;;;;4977335;28;20517;-57
2023/03/13 02:39:06;;;;;;;2.42;0.88;;;9.90;76.40;;;;;;4981335;28;20493;-60
2023/03/13 02:41:33;;;;;;;1.73;0.68;;;9.90;76.30;;;;;;4981248;28;20052;-62
2023/03/13 02:43:59;;;;;;;1.15;0.50;;;9.90;76.30;;;;;;4980502;28;20539;-61
2023/03/13 02:46:24;;;;;;;1.50;0.50;;;9.90;76.30;;;;;;4981012;28;20038;-60
2023/03/13 02:48:52;;;;;;;2.10;0.90;;;9.90;76.30;;;;;;4979539;28;20046;-62
2023/03/13 02:51:23;;;;;;;0.93;0.60;;;9.90;76.40;;;;;;4983263;28;20034;-61
2023/03/13 02:53:52;;;;;;;1.20;0.60;;;9.90;76.50;;;;;;4982133;28;20515;-58
2023/03/13 02:56:22;;;;;;;1.67;0.70;;;9.90;76.50;;;;;;4981624;28;20169;-60
2023/03/13 02:58:48;;;;;;;6.95;0.63;;;9.90;76.50;;;;;;4979092;28;20045;-59
2023/03/13 03:01:13;;;;;;;1.13;0.63;;;9.90;76.60;;;;;;4980179;28;20046;-62
2023/03/13 03:03:39;;;;;;;2.67;0.80;;;10.00;76.70;;;;;;4980303;28;20473;-61
2023/03/13 03:06:05;;;;;;;1.90;0.70;;;9.90;76.60;;;;;;4979766;28;20267;-61
2023/03/13 03:08:31;;;;;;;2.67;0.68;;;10.00;76.70;;;;;;4981144;28;20276;-62
2023/03/13 03:10:56;;;;;;;2.33;0.88;;;10.00;76.70;;;;;;4975776;28;21205;-60
2023/03/13 03:13:22;;;;;;;2.78;0.70;;;10.00;76.60;;;;;;4982173;28;20050;-61
2023/03/13 03:15:48;;;;;;;1.52;0.63;;;10.00;76.60;;;;;;4983602;28;20030;-58
2023/03/13 03:18:13;;;;;;;2.55;0.57;;;10.10;76.70;;;;;;4980051;28;20117;-60
2023/03/13 03:20:39;;;;;;;3.85;0.70;;;10.10;76.50;;;;;;4980265;28;20045;-60
2023/03/13 03:23:04;;;;;;;1.38;0.57;;;10.10;76.50;;;;;;4982318;28;20032;-60
2023/03/13 03:25:30;;;;;;;2.83;0.77;;;10.20;76.40;;;;;;4978854;28;20045;-60
2023/03/13 03:27:55;;;;;;;1.70;0.60;;;10.20;76.30;;;;;;4981845;28;20402;-59
2023/03/13 03:30:21;;;;;;;2.75;1.00;;;10.20;76.30;;;;;;4978653;28;20050;-58
2023/03/13 03:32:47;;;;;;;2.03;0.60;;;10.20;76.20;;;;;;4980861;28;20038;-59
2023/03/13 03:35:12;;;;;;;2.13;0.70;;;10.20;76.10;;;;;;4980081;28;20046;-61
2023/03/13 03:37:38;;;;;;;1.38;0.77;;;10.20;76.10;;;;;;4982389;28;20039;-61
2023/03/13 03:40:07;;;;;;;3.15;0.75;;;10.20;76.10;;;;;;4981913;28;20142;-60
2023/03/13 03:42:33;;;;;;;1.75;0.80;;;10.20;76.10;;;;;;4980643;28;20065;-62
2023/03/13 03:44:58;;;;;;;4.75;0.77;;;10.20;76.00;;;;;;4981284;28;20065;-62
2023/03/13 03:47:24;;;;;;;1.63;0.55;;;10.20;76.00;;;;;;4985399;28;20258;-59
2023/03/13 03:49:50;;;;;;;3.53;0.77;;;10.20;76.00;;;;;;4984503;28;20506;-59
2023/03/13 03:52:16;;;;;;;1.27;0.60;;;10.20;76.00;;;;;;4981385;28;20318;-60
2023/03/13 03:54:42;;;;;;;1.73;0.57;;;10.20;76.00;;;;;;4983045;28;20573;-61
2023/03/13 03:57:07;;;;;;;0.95;0.77;;;10.20;76.00;;;;;;4981456;28;20113;-61
2023/03/13 03:59:33;;;;;;;3.72;0.70;;;10.20;76.00;;;;;;4980186;28;20042;-60
2023/03/13 04:01:58;;;;;;;2.13;0.90;;;10.20;76.00;;;;;;4983855;28;20472;-59
2023/03/13 04:04:24;;;;;;;1.88;0.50;;;10.20;76.80;;;;;;4984897;28;20077;-59
2023/03/13 04:06:50;;;;;;;1.30;0.77;;;10.20;76.00;;;;;;4981733;28;20145;-61
2023/03/13 04:09:15;;;;;;;2.17;0.65;;;10.20;76.80;;;;;;4981987;28;20113;-61
2023/03/13 04:11:41;;;;;;;2.33;0.77;;;10.20;76.00;;;;;;4982403;28;20532;-61
2023/03/13 04:14:07;;;;;;;1.45;0.60;;;10.20;76.00;;;;;;4985538;28;20053;-60
2023/03/13 04:16:32;;;;;;;1.67;1.00;;;10.20;75.90;;;;;;4984208;28;20564;-60
2023/03/13 04:18:58;;;;;;;1.50;0.70;;;10.20;75.90;;;;;;4981723;28;20050;-61
2023/03/13 04:21:23;;;;;;;1.02;0.70;;;10.20;75.90;;;;;;4981553;28;20569;-58
2023/03/13 04:23:49;;;;;;;1.25;0.63;;;10.20;75.80;;;;;;4983243;28;20100;-62
2023/03/13 04:26:15;;;;;;;2.13;0.85;;;10.20;75.80;;;;;;4983930;28;20070;-62
2023/03/13 04:28:40;;;;;;;0.95;0.70;;;10.20;75.90;;;;;;4978244;28;20175;-61
2023/03/13 04:31:06;;;;;;;2.83;0.82;;;10.20;75.90;;;;;;4980135;28;20042;-59
2023/03/13 04:33:32;;;;;;;1.33;0.60;;;10.20;75.90;;;;;;4980873;28;20061;-61
2023/03/13 04:35:57;;;;;;;2.05;0.55;;;10.20;75.90;;;;;;4982262;28;20122;-61
2023/03/13 04:38:24;;;;;;;0.93;0.63;;;10.20;76.00;;;;;;4983114;28;20399;-62
2023/03/13 04:40:49;;;;;;;1.30;0.70;;;10.20;75.80;;;;;;4980338;28;20042;-62
2023/03/13 04:43:15;;;;;;;1.83;0.70;;;10.20;75.90;;;;;;4985084;28;20049;-62
2023/03/13 04:45:40;;;;;;;3.28;0.80;;;10.20;75.90;;;;;;4983521;28;20042;-61
2023/03/13 04:48:06;;;;;;;0.85;0.50;;;10.20;75.80;;;;;;4978654;28;20704;-61
2023/03/13 04:50:31;;;;;;;1.00;0.60;;;10.20;75.80;;;;;;4979965;28;20034;-60
2023/03/13 04:52:57;;;;;;;1.15;0.50;;;10.20;75.70;;;;;;4981178;28;20080;-59
2023/03/13 04:55:23;;;;;;;1.30;0.50;;;10.20;75.70;;;;;;4985342;28;20032;-60
2023/03/13 04:57:48;;;;;;;9.10;0.73;;;10.20;75.60;;;;;;4981592;28;20039;-62
2023/03/13 05:00:14;;;;;;;1.83;0.50;;;10.20;75.60;;;;;;4981870;28;20122;-61
2023/03/13 05:02:40;;;;;;;0.63;0.45;;;10.20;75.60;;;;;;4981819;28;20493;-61
2023/03/13 05:05:05;;;;;;;1.95;0.52;;;10.20;75.60;;;;;;4981321;28;20387;-60
2023/03/13 05:07:31;;;;;;;0.93;0.50;;;10.20;75.50;;;;;;4983287;28;20097;-61
2023/03/13 05:09:56;;;;;;;1.67;0.52;;;10.20;75.40;;;;;;4985018;28;20072;-62
2023/03/13 05:12:22;;;;;;;1.92;0.60;;;10.30;75.40;;;;;;4978212;28;20026;-58
2023/03/13 05:14:49;;;;;;;4.65;2.72;;;10.30;75.40;;;;;;4975439;28;20043;-58
2023/03/13 05:17:16;;;;;;;3.35;2.05;;;10.30;75.30;;;;;;4979153;28;20050;-60
2023/03/13 05:19:42;;;;;;;6.07;3.40;;;10.30;75.20;;;;;;4977030;28;20030;-59
2023/03/13 05:22:08;;;;;;;7.88;5.35;;;10.30;75.10;;;;;;4983205;28;20610;-59
2023/03/13 05:24:33;;;;;;;5.90;5.15;;;10.30;75.00;;;;;;4976248;28;20149;-61
2023/03/13 05:26:59;;;;;;;2.05;1.80;;;10.30;74.90;;;;;;4982986;28;20069;-61
2023/03/13 05:29:25;;;;;;;1.27;1.17;;;10.30;74.70;;;;;;4982713;28;20034;-60
2023/03/13 05:31:51;;;;;;;1.63;0.80;;;10.30;74.80;;;;;;4981609;28;20413;-60
2023/03/13 05:34:16;;;;;;;0.90;0.60;;;10.30;74.60;;;;;;4979980;28;20045;-59
2023/03/13 05:36:42;;;;;;;1.45;0.75;;;10.30;74.60;;;;;;4975992;28;20563;-59
2023/03/13 05:39:08;;;;;;;2.10;1.30;;;10.40;74.60;;;;;;4979979;28;20413;-61
2023/03/13 05:41:33;;;;;;;1.20;0.80;;;10.30;74.60;;;;;;4982378;28;20049;-59
2023/03/13 05:43:59;;;;;;;2.55;0.90;;;10.40;75.40;;;;;;4980253;28;20557;-62
2023/03/13 05:46:24;;;;;;;0.93;0.60;;;10.40;74.60;;;;;;4981128;28;20034;-59
2023/03/13 05:48:51;;;;;;;1.88;0.85;;;10.40;74.60;;;;;;4980379;28;20046;-60
2023/03/13 05:51:17;;;;;;;2.47;0.70;;;10.40;74.60;;;;;;4979626;28;21278;-60
2023/03/13 05:53:42;;;;;;;1.40;0.70;;;10.40;74.60;;;;;;4980220;28;20095;-60
2023/03/13 05:56:08;;;;;;;1.20;0.65;;;10.40;74.50;;;;;;4981814;28;20062;-61
2023/03/13 05:58:34;;;;;;;2.05;0.70;;;10.40;74.40;;;;;;4978861;28;20480;-61
2023/03/13 06:01:05;;;;;;;2.05;1.73;;;10.30;74.40;;;;;;4976322;28;20132;-62
2023/03/13 06:03:31;;;;;;;0.85;0.70;;;10.50;74.40;;;;;;4982742;28;20049;-59
2023/03/13 06:05:58;;;;;;;1.42;0.60;;;10.50;74.40;;;;;;4981708;28;20042;-58
2023/03/13 06:08:23;;;;;;;1.10;0.60;;;10.40;74.40;;;;;;4978521;28;20039;-60
2023/03/13 06:10:49;;;;;;;0.98;0.85;;;10.50;74.40;;;;;;4979027;28;20049;-61
2023/03/13 06:13:14;;;;;;;1.65;0.50;;;10.50;74.40;;;;;;4977955;28;20030;-60
2023/03/13 06:15:40;;;;;;;2.70;0.70;;;10.50;74.40;;;;;;4980412;28;20117;-60
2023/03/13 06:18:05;;;;;;;2.60;0.85;;;10.50;74.40;;;;;;4979446;28;20038;-60
2023/03/13 06:20:31;;;;;;;1.75;0.70;;;10.50;74.40;;;;;;4976545;28;20057;-61
2023/03/13 06:22:57;;;;;;;1.90;0.65;;;10.50;74.40;;;;;;4981962;28;20053;-60
2023/03/13 06:25:24;;;;;;;2.10;0.70;;;10.50;74.40;;;;;;4983834;28;20506;-58
2023/03/13 06:27:50;;;;;;;0.57;0.50;;;10.50;74.40;;;;;;4979629;28;20120;-58
2023/03/13 06:30:16;;;;;;;1.50;0.85;;;10.50;74.50;;;;;;4974970;28;20092;-60
2023/03/13 06:32:41;;;;;;;0.88;0.70;;;10.60;74.50;;;;;;4975523;28;20030;-61
2023/03/13 06:35:07;;;;;;;1.05;0.55;;;10.60;74.40;;;;;;4976643;28;20104;-61
2023/03/13 06:37:33;;;;;;;3.00;0.60;;;10.60;74.40;;;;;;4980084;28;20614;-61
2023/03/13 06:39:59;;;;;;;1.10;0.50;;;10.60;74.40;;;;;;4977839;28;20046;-62
2023/03/13 06:42:24;;;;;;;2.38;0.63;;;10.60;74.40;;;;;;4980628;28;20524;-61
2023/03/13 06:44:50;;;;;;;1.05;0.50;;;10.60;74.60;;;;;;4981088;28;20062;-60
2023/03/13 06:47:15;;;;;;;1.60;0.70;;;10.60;74.60;;;;;;4982256;28;20034;-60
2023/03/13 06:49:41;;;;;;;2.65;0.70;;;10.60;74.70;;;;;;4977156;28;20041;-61
2023/03/13 06:52:07;;;;;;;2.10;0.77;;;10.70;74.80;;;;;;4980206;28;20038;-60
2023/03/13 06:54:33;;;;;;;3.13;0.70;;;10.70;74.90;;;;;;4976521;28;20226;-62
2023/03/13 06:56:58;;;;;;;1.42;0.63;;;10.70;74.90;;;;;;4980706;28;20559;-61
2023/03/13 06:59:24;;;;;;;1.33;0.70;;;10.80;75.00;;;;;;4977492;28;20062;-62
2023/03/13 07:01:49;;;;;;;1.10;0.47;;;10.80;75.00;;;;;;4977702;28;20031;-62
2023/03/13 07:04:15;;;;;;;3.28;0.70;;;10.90;75.10;;;;;;4981786;28;20045;-60
2023/03/13 07:06:41;;;;;;;9.45;0.63;;;10.90;75.40;;;;;;4974321;28;20038;-61
2023/03/13 07:09:06;;;;;;;4.50;1.00;;;11.00;75.00;;;;;;4978004;28;20038;-62
2023/03/13 07:11:32;;;;;;;0.80;0.80;;;11.00;74.80;;;;;;4979310;28;20026;-61
2023/03/13 07:14:00;;;;;;;3.15;0.70;;;11.10;74.80;;;;;;4980127;28;20062;-59
2023/03/13 07:16:26;;;;;;;1.25;0.90;;;11.10;74.60;;;;;;4979862;28;20125;-61
2023/03/13 07:18:52;;;;;;;2.00;0.85;;;11.10;74.50;;;;;;4980091;28;20030;-60
2023/03/13 07:21:18;;;;;;;1.17;1.08;;;11.20;74.40;;;;;;4981034;28;20472;-61
2023/03/13 07:23:44;;;;;;;0.73;0.55;;;11.20;74.30;;;;;;4980035;28;20038;-60
2023/03/13 07:26:12;;;;;;;1.42;1.33;;;11.30;74.20;;;;;;4962744;28;20508;-61
2023/03/13 07:28:38;;;;;;;0.90;0.80;;;11.30;74.00;;;;;;4968016;28;20038;-62
2023/03/13 07:31:11;;;;;;;0.75;0.60;;;11.40;73.90;;;;;;4970366;28;20096;-62
2023/03/13 07:33:36;;;;;;;2.65;0.90;;;11.50;73.80;;;;;;4975902;28;20038;-62
2023/03/13 07:36:03;;;;;;;1.10;0.80;;;11.50;73.90;;;;;;4972398;28;20049;-61
2023/03/13 07:38:28;;;;;;;0.90;0.55;;;11.60;73.90;;;;;;4971033;28;20164;-60
2023/03/13 07:40:56;;;;;;;0.98;0.57;;;11.60;73.80;;;;;;4973996;28;20517;-59
2023/03/13 07:43:22;;;;;;;2.40;0.50;;;11.70;73.70;;;;;;4972889;28;20041;-61
2023/03/13 07:46:01;;;;;;;1.27;0.40;;;11.80;73.60;;;;;;4980071;28;20031;-62
2023/03/13 07:48:32;;;;;;;1.13;0.60;;;11.90;73.50;;;;;;4968868;28;20036;-60
2023/03/13 07:50:59;;;;;;;1.92;0.52;;;12.00;73.40;;;;;;4971903;28;20042;-61
2023/03/13 07:53:24;;;;;;;1.55;0.80;;;12.00;73.20;;;;;;4969095;28;20038;-61
2023/03/13 07:56:02;;;;;;;1.40;0.40;;;12.10;73.20;;;;;;4966341;28;20586;-60
2023/03/13 07:58:30;;;;;;;0.93;0.50;;;12.20;72.80;;;;;;4970376;28;20041;-61
2023/03/13 08:00:56;;;;;;;2.17;0.70;;;12.20;72.90;;;;;;4973301;28;20069;-61
2023/03/13 08:03:22;;;;;;;1.27;0.60;;;12.20;72.90;;;;;;4977388;28;20034;-61
2023/03/13 08:06:00;;;;;;;0.75;0.50;;;12.30;73.00;;;;;;4973336;28;20038;-60
2023/03/13 08:08:26;;;;;;;1.23;0.50;;;12.40;72.80;;;;;;4970236;28;20069;-59
2023/03/13 08:10:51;;;;;;;0.40;0.30;;;12.50;72.80;;;;;;4963516;28;20680;-60
2023/03/13 08:13:17;;;;;;;1.38;0.60;;;12.50;72.70;;;;;;4969300;28;20050;-61
2023/03/13 08:15:42;;;;;;;0.90;0.63;;;12.60;72.70;;;;;;4971297;28;21249;-60
2023/03/13 08:18:08;;;;;;;2.17;0.68;;;12.70;72.60;;;;;;4975936;28;20445;-58
2023/03/13 08:20:34;;;;;;;2.88;0.77;;;12.70;72.40;;;;;;4965738;28;20502;-57
2023/03/13 08:22:59;;;;;;;2.35;0.68;;;12.80;72.50;;;;;;4972281;28;20065;-60
2023/03/13 08:25:25;;;;;;;0.60;0.50;;;12.90;72.30;;;;;;4978305;28;20035;-60
2023/03/13 08:27:50;;;;;;;1.48;0.80;;;12.90;72.10;;;;;;4974232;28;20038;-60
2023/03/13 08:30:16;;;;;;;1.33;0.73;;;13.00;72.10;;;;;;4961862;28;20046;-60
2023/03/13 08:32:42;;;;;;;1.63;0.60;;;13.00;72.00;;;;;;4968927;28;20532;-60
2023/03/13 08:35:08;;;;;;;2.10;1.10;;;13.10;71.90;;;;;;4975384;28;20053;-60
2023/03/13 08:37:33;;;;;;;2.65;1.77;;;13.10;71.80;;;;;;4980106;28;20069;-56
2023/03/13 08:39:59;;;;;;;7.78;2.70;;;13.20;71.90;;;;;;4975189;28;20045;-59
2023/03/13 08:42:24;;;;;;;3.17;1.70;;;13.30;71.80;;;;;;4976613;28;20081;-61
2023/03/13 08:44:50;;;;;;;1.42;0.90;;;13.30;71.70;;;;;;4976358;28;20042;-61
2023/03/13 08:47:17;;;;;;;1.88;1.60;;;13.40;71.80;;;;;;4978217;28;20058;-61
2023/03/13 08:49:43;;;;;;;1.42;0.93;;;13.40;71.60;;;;;;4977067;28;20058;-61
2023/03/13 08:52:09;;;;;;;3.03;1.88;;;13.50;71.60;;;;;;4973048;28;20062;-61
2023/03/13 08:54:34;;;;;;;7.07;2.85;;;13.60;71.40;;;;;;4970340;28;20141;-60
2023/03/13 08:57:00;;;;;;;2.33;1.00;;;13.60;71.40;;;;;;4975212;28;20038;-61
2023/03/13 08:59:26;;;;;;;1.02;0.77;;;13.70;72.20;;;;;;4969543;28;20042;-58
2023/03/13 09:01:51;;;;;;;1.88;0.80;;;13.70;71.30;;;;;;4969864;28;20039;-60
2023/03/13 09:04:18;;;;;;;2.95;1.58;;;13.80;71.10;;;;;;4979614;28;20094;-60
2023/03/13 09:06:43;;;;;;;2.55;0.95;;;13.90;71.00;;;;;;4982005;28;20034;-61
2023/03/13 09:09:09;;;;;;;2.47;1.65;;;13.90;70.90;;;;;;4980985;28;20035;-58
2023/03/13 09:11:38;;;;;;;3.13;1.30;;;14.00;70.90;;;;;;4964242;28;20030;-59
2023/03/13 09:14:04;;;;;;;2.28;0.90;;;14.10;70.90;;;;;;4979064;28;20049;-62
2023/03/13 09:16:31;;;;;;;4.82;1.90;;;14.20;70.90;;;;;;4975969;28;20034;-59
2023/03/13 09:18:57;;;;;;;2.65;1.05;;;14.20;70.90;;;;;;4979207;28;20430;-61
2023/03/13 09:21:29;;;;;;;2.05;0.98;;;14.30;70.50;;;;;;4977006;28;20079;-61
2023/03/13 09:23:55;;;;;;;1.70;0.82;;;14.40;70.30;;;;;;4975790;28;20522;-59
2023/03/13 09:26:21;;;;;;;2.60;1.23;;;14.50;70.40;;;;;;4980719;28;20266;-60
2023/03/13 09:28:47;;;;;;;3.00;1.35;;;14.50;71.10;;;;;;4981304;28;20489;-60
2023/03/13 09:31:18;;;;;;;2.50;1.25;;;14.60;70.20;;;;;;4973504;28;21095;-59
2023/03/13 09:33:44;;;;;;;1.67;0.95;;;14.60;69.80;;;;;;4968699;28;20038;-61
2023/03/13 09:36:11;;;;;;;1.73;0.93;;;14.70;69.70;;;;;;4977563;28;20702;-61
2023/03/13 09:38:38;;;;;;;2.80;1.00;;;14.80;69.70;;;;;;4977592;28;20088;-60
2023/03/13 09:41:21;;;;;;;2.50;1.17;;;14.80;69.50;;;;;;4980668;28;20050;-60
2023/03/13 09:44:05;;;;;;;1.23;0.77;;;14.90;69.00;;;;;;4975460;28;20129;-60
2023/03/13 09:46:51;;;;;;;2.28;1.20;;;15.00;68.80;;;;;;4973453;28;20046;-58
2023/03/13 09:49:24;;;;;;;1.15;0.70;;;15.00;68.50;;;;;;4974599;28;20038;-61
2023/03/13 09:52:01;;;;;;;1.30;0.98;;;15.00;68.80;;;;;;4966555;28;20078;-61
2023/03/13 09:54:36;;;;;;;1.38;0.70;;;15.00;68.30;;;;;;4974636;28;20108;-59
2023/03/13 09:57:22;;;;;;;1.02;0.68;;;15.10;68.50;;;;;;4979252;28;20045;-61
2023/03/13 10:00:12;;;;;;;0.95;0.65;;;15.10;68.50;;;;;;4979285;28;20129;-61
2023/03/13 10:02:41;;;;;;;0.77;0.55;;;15.20;68.60;;;;;;4976197;28;20456;-62
2023/03/13 10:05:26;;;;;;;0.95;0.63;;;15.30;68.90;;;;;;4976832;28;20039;-61
2023/03/13 10:08:11;;;;;;;1.75;0.82;;;15.30;68.30;;;;;;4978765;28;20406;-59
2023/03/13 10:10:41;;;;;;;1.65;0.90;;;15.40;68.30;;;;;;4977044;28;20502;-61
2023/03/13 10:13:31;;;;;;;2.13;0.88;;;15.50;68.40;;;;;;4972252;28;20065;-62
2023/03/13 10:16:09;;;;;;;1.50;0.73;;;15.50;68.50;;;;;;4977475;28;20517;-61
2023/03/13 10:18:35;;;;;;;1.30;0.95;;;15.60;68.30;;;;;;4976832;28;20035;-61
2023/03/13 10:21:29;;;;;;;1.20;1.00;;;15.70;68.20;;;;;;4983627;28;20421;-60
2023/03/13 10:24:04;;;;;;;0.77;0.70;;;15.80;67.90;;;;;;4982327;28;20038;-58
2023/03/13 10:26:33;;;;;;;2.60;0.55;;;15.90;67.40;;;;;;4985903;28;20042;-60
2023/03/13 10:29:15;;;;;;;1.88;1.05;;;16.00;67.70;;;;;;4983462;28;20062;-60
2023/03/13 10:31:44;;;;;;;2.28;0.85;;;16.10;67.20;;;;;;4982242;28;20065;-59
2023/03/13 10:34:12;;;;;;;3.97;2.10;;;16.10;67.50;;;;;;4986965;28;20103;-60
2023/03/13 10:36:46;;;;;;;3.88;1.60;;;16.20;67.40;;;;;;4984550;28;20069;-60
2023/03/13 10:39:16;;;;;;;3.35;2.00;;;16.30;67.40;;;;;;4984100;28;20125;-60
2023/03/13 10:41:42;;;;;;;2.30;0.88;;;16.40;67.80;;;;;;4985025;28;20086;-59
2023/03/13 10:44:20;;;;;;;1.00;0.80;;;16.50;67.60;;;;;;4985636;28;20526;-59
2023/03/13 10:46:48;;;;;;;1.63;0.52;;;16.60;66.80;;;;;;4978542;28;20034;-61
2023/03/13 10:49:18;;;;;;;4.28;1.20;;;16.70;66.70;;;;;;4986296;28;20035;-61
2023/03/13 10:51:55;;;;;;;3.28;1.05;;;16.80;66.50;;;;;;4986056;28;20038;-59
2023/03/13 10:54:30;;;;;;;2.20;1.05;;;16.90;66.40;;;;;;4987150;28;20287;-61
2023/03/13 10:57:15;;;;;;;;;;;17.00;65.90;;;;;;4989688;28;20532;-59
2023/03/13 10:59:46;;;;;;;1.60;0.75;;;17.10;65.50;;;;;;4990312;28;19913;-59
2023/03/13 11:02:38;;;;;;;1.52;0.70;;;17.20;65.10;;;;;;4989362;28;20105;-62
2023/03/13 11:05:36;;;;;;;2.13;0.63;;;17.20;64.40;;;;;;4988848;28;20042;-59
2023/03/13 11:08:31;;;;;;;2.22;0.73;;;17.30;65.00;;;;;;4966982;28;20548;-60
2023/03/13 11:10:59;;;;;;;1.98;0.68;;;17.40;64.60;;;;;;4975674;28;20053;-58
2023/03/13 11:13:26;;;;;;;4.03;0.77;;;17.50;64.70;;;;;;4989773;28;20125;-59
2023/03/13 11:15:57;;;;;;;4.22;0.90;;;17.50;62.90;;;;;;4987102;28;20041;-61
2023/03/13 11:18:35;;;;;;;3.08;0.63;;;17.60;63.80;;;;;;4988474;28;20565;-59
2023/03/13 11:21:02;;;;;;;1.75;0.77;;;17.70;63.30;;;;;;4988943;28;20454;-58
2023/03/13 11:23:35;;;;;;;1.70;0.85;;;17.70;64.00;;;;;;4987483;28;20315;-62
2023/03/13 11:26:19;;;;;;;1.55;0.70;;;17.80;63.80;;;;;;4987979;28;20560;-59
2023/03/13 11:29:23;;;;;;;1.40;1.00;;;17.90;63.10;;;;;;4989152;28;20038;-62
2023/03/13 11:31:56;;;;;;;1.73;0.60;;;18.00;62.90;;;;;;4991036;28;20068;-60
2023/03/13 11:34:33;;;;;;;2.90;1.17;;;18.00;62.80;;;;;;4984598;28;20605;-58
2023/03/13 11:37:04;;;;;;;2.20;1.20;;;18.10;62.20;;;;;;4984548;28;20035;-61
2023/03/13 11:39:45;;;;;;;1.88;1.40;;;18.20;61.70;;;;;;4980089;28;20130;-59
2023/03/13 11:42:41;;;;;;;0.63;0.63;;;18.30;61.90;;;;;;4986347;28;20062;-61
2023/03/13 11:45:25;;;;;;;0.90;0.70;;;18.30;62.20;;;;;;4987312;28;20053;-61
2023/03/13 11:48:29;;;;;;;1.35;0.70;;;18.40;62.40;;;;;;4987754;28;20549;-62
2023/03/13 11:51:03;;;;;;;1.25;1.15;;;18.50;61.30;;;;;;4978762;28;20068;-62
2023/03/13 11:53:43;;;;;;;1.42;0.80;;;18.60;61.70;;;;;;4984366;28;20517;-60
2023/03/13 11:56:27;;;;;;;1.60;0.95;;;18.70;61.50;;;;;;4987433;28;20038;-62
2023/03/13 11:59:30;;;;;;;1.48;0.70;;;18.60;60.70;;;;;;4986087;28;20061;-62
2023/03/13 12:02:30;;;;;;;1.13;0.70;;;18.70;60.60;;;;;;4983743;28;20192;-61
2023/03/13 12:05:03;;;;;;;1.70;0.82;;;18.70;60.10;;;;;;4986063;28;20406;-60
2023/03/13 12:07:31;;;;;;;1.88;0.80;;;18.70;60.60;;;;;;4984673;28;20061;-59
2023/03/13 12:10:01;;;;;;;1.38;0.90;;;18.80;60.20;;;;;;4987528;28;20038;-60
2023/03/13 12:12:59;;;;;;;3.25;0.82;;;18.80;60.30;;;;;;4982426;28;20049;-56
2023/03/13 12:15:40;;;;;;;2.00;0.80;;;18.80;59.20;;;;;;4985741;28;20513;-60
2023/03/13 12:18:28;;;;;;;2.22;1.10;;;18.80;59.80;;;;;;4987783;28;20133;-60
2023/03/13 12:21:06;;;;;;;0.90;0.60;;;18.80;60.00;;;;;;4985629;28;20130;-60
2023/03/13 12:24:01;;;;;;;2.65;0.90;;;18.80;59.30;;;;;;4988161;28;20038;-60
2023/03/13 12:26:34;;;;;;;;;;;18.80;58.50;;;;;;4985329;28;20631;-59
2023/03/13 12:29:05;;;;;;;1.60;0.90;;;18.90;59.00;;;;;;4986615;28;20377;-60
2023/03/13 12:31:41;;;;;;;1.23;0.63;;;18.90;59.70;;;;;;4986262;28;20058;-60
2023/03/13 12:34:19;;;;;;;0.73;0.52;;;18.90;59.60;;;;;;4984597;28;20062;-61
2023/03/13 12:37:11;;;;;;;0.88;0.60;;;18.90;59.00;;;;;;4986330;28;20042;-58
2023/03/13 12:39:49;;;;;;;2.22;0.70;;;19.00;59.50;;;;;;4988065;28;20493;-62
2023/03/13 12:42:51;;;;;;;2.40;0.50;;;19.00;59.60;;;;;;4988771;28;20506;-61
2023/03/13 12:45:19;;;;;;;1.02;0.70;;;19.10;58.80;;;;;;4987177;28;20501;-59
2023/03/13 12:48:23;;;;;;;2.45;0.73;;;19.10;59.10;;;;;;4987497;28;20046;-61
2023/03/13 12:50:49;;;;;;;1.77;0.60;;;19.20;58.30;;;;;;4983107;28;20608;-60
2023/03/13 12:53:23;;;;;;;0.93;0.45;;;19.30;59.50;;;;;;4984163;28;20134;-62
2023/03/13 12:56:04;;;;;;;1.77;0.52;;;19.30;59.00;;;;;;4986265;28;20109;-59
2023/03/13 12:58:48;;;;;;;1.08;0.60;;;19.40;58.90;;;;;;4985025;28;20039;-58
2023/03/13 13:01:40;;;;;;;1.15;0.40;;;19.50;58.80;;;;;;4983533;28;20049;-60
2023/03/13 13:04:12;;;;;;;0.98;0.60;;;19.50;58.50;;;;;;4976394;28;20034;-61